Time;durP1;ratioP1;P1;durP2;ratioP2;P2;SDS_P1;SDS_P2;PMS_P1;PMS_P2;Temp;Humidity;BMP_temperature;BMP_pressure;BME280_temperature;BME280_humidity;BME280_pressure;Samples;Min_cycle;Max_cycle;Signal;HPM_P1;HPM_P2
2023/07/19 00:00:41;;;;;;;5.25;1.35;;;18.50;99.90;;;;;;5040536;28;20056;-55
2023/07/19 00:03:08;;;;;;;4.90;0.98;;;18.50;99.90;;;;;;5034590;28;20488;-57
2023/07/19 00:05:35;;;;;;;3.85;1.00;;;18.50;99.90;;;;;;5040747;28;20450;-55
2023/07/19 00:08:02;;;;;;;4.63;1.48;;;18.50;99.90;;;;;;5050925;28;20045;-58
2023/07/19 00:10:29;;;;;;;7.68;1.30;;;18.50;99.90;;;;;;5042885;28;20681;-58
2023/07/19 00:12:56;;;;;;;3.60;1.30;;;18.40;99.90;;;;;;5050701;28;20122;-57
2023/07/19 00:15:24;;;;;;;3.95;1.25;;;18.40;99.90;;;;;;5043250;28;20370;-58
2023/07/19 00:17:50;;;;;;;2.75;1.10;;;18.30;99.90;;;;;;5041466;28;20081;-57
2023/07/19 00:20:18;;;;;;;2.47;1.15;;;18.30;99.90;;;;;;5037160;28;20124;-57
2023/07/19 00:22:46;;;;;;;6.80;1.27;;;18.30;99.90;;;;;;5040057;28;20057;-56
2023/07/19 00:25:13;;;;;;;3.50;1.30;;;18.30;99.90;;;;;;5046219;28;20076;-57
2023/07/19 00:27:39;;;;;;;2.92;0.90;;;18.20;99.90;;;;;;5047061;28;20049;-57
2023/07/19 00:30:07;;;;;;;4.93;1.45;;;18.20;99.90;;;;;;5046026;28;20267;-57
2023/07/19 00:32:34;;;;;;;4.55;1.52;;;18.20;99.90;;;;;;5039505;28;20045;-57
2023/07/19 00:35:01;;;;;;;3.15;1.00;;;18.30;99.90;;;;;;5049197;28;20040;-56
2023/07/19 00:37:28;;;;;;;3.03;1.20;;;18.20;99.90;;;;;;5043764;28;20049;-57
2023/07/19 00:39:54;;;;;;;4.22;1.20;;;18.30;99.90;;;;;;5031377;28;20045;-57
2023/07/19 00:42:21;;;;;;;5.15;1.42;;;18.20;99.90;;;;;;5047344;28;20052;-56
2023/07/19 00:44:48;;;;;;;6.75;1.10;;;18.10;99.90;;;;;;5032599;28;20064;-55
2023/07/19 00:47:15;;;;;;;5.10;1.30;;;18.10;99.90;;;;;;5045548;28;20561;-55
2023/07/19 00:49:42;;;;;;;5.15;1.33;;;18.10;99.90;;;;;;5050149;28;20041;-55
2023/07/19 00:52:09;;;;;;;6.63;1.30;;;18.00;99.90;;;;;;5040556;28;20447;-57
2023/07/19 00:54:36;;;;;;;8.43;1.23;;;17.90;99.90;;;;;;5034336;28;20046;-58
2023/07/19 00:57:03;;;;;;;5.45;1.58;;;17.90;99.90;;;;;;5036135;28;20060;-58
2023/07/19 00:59:31;;;;;;;4.28;1.83;;;18.00;99.90;;;;;;5025589;28;20051;-56
2023/07/19 01:01:58;;;;;;;5.13;1.52;;;17.90;99.90;;;;;;5040398;28;20050;-57
2023/07/19 01:04:26;;;;;;;3.95;0.95;;;17.90;99.90;;;;;;5039168;28;20041;-57
2023/07/19 01:06:53;;;;;;;4.53;1.10;;;18.00;99.90;;;;;;5040533;28;20049;-57
2023/07/19 01:09:19;;;;;;;4.95;1.23;;;17.90;99.90;;;;;;5042403;28;20045;-57
2023/07/19 01:11:46;;;;;;;5.43;1.10;;;17.90;99.90;;;;;;5044963;28;20045;-57
2023/07/19 01:14:14;;;;;;;6.07;1.75;;;17.90;99.90;;;;;;5041861;28;20452;-58
2023/07/19 01:16:40;;;;;;;8.35;1.13;;;17.90;99.90;;;;;;5034512;28;20584;-57
2023/07/19 01:19:09;;;;;;;4.45;1.45;;;17.90;99.90;;;;;;4694067;28;10000470;-56
2023/07/19 01:21:35;;;;;;;5.15;1.75;;;18.00;99.90;;;;;;5044861;28;20049;-56
2023/07/19 01:24:03;;;;;;;4.90;1.20;;;17.90;99.90;;;;;;5041954;28;20106;-57
2023/07/19 01:26:30;;;;;;;3.85;1.48;;;18.00;99.90;;;;;;5032527;28;20044;-58
2023/07/19 01:28:57;;;;;;;3.15;1.10;;;17.90;99.90;;;;;;5037312;28;20111;-57
2023/07/19 01:31:24;;;;;;;6.97;2.03;;;17.80;99.90;;;;;;5048047;28;20468;-57
2023/07/19 01:33:51;;;;;;;3.35;1.50;;;17.80;99.90;;;;;;5041776;28;20044;-57
2023/07/19 01:36:18;;;;;;;6.93;1.65;;;17.90;99.90;;;;;;5033026;28;20049;-58
2023/07/19 01:38:44;;;;;;;4.18;1.48;;;17.90;99.90;;;;;;5038736;28;20053;-58
2023/07/19 01:41:11;;;;;;;4.60;1.85;;;17.90;99.90;;;;;;5044815;28;20130;-58
2023/07/19 01:43:38;;;;;;;6.03;1.50;;;18.00;99.90;;;;;;5039883;28;20051;-58
2023/07/19 01:46:05;;;;;;;6.05;1.55;;;18.00;99.90;;;;;;5037612;28;20050;-57
2023/07/19 01:48:32;;;;;;;5.55;1.67;;;17.90;99.90;;;;;;5037217;28;20048;-58
2023/07/19 01:50:59;;;;;;;4.90;1.42;;;17.90;99.90;;;;;;5040394;28;20053;-58
2023/07/19 01:53:26;;;;;;;7.28;1.98;;;17.90;99.90;;;;;;5041698;28;20092;-57
2023/07/19 01:55:54;;;;;;;4.93;1.95;;;17.90;99.90;;;;;;5041330;28;20046;-56
2023/07/19 01:58:21;;;;;;;6.85;2.25;;;17.90;99.90;;;;;;5042729;28;20059;-56
2023/07/19 02:00:48;;;;;;;10.85;3.25;;;17.90;99.90;;;;;;5048650;28;20045;-59
2023/07/19 02:03:15;;;;;;;5.22;1.45;;;17.90;99.90;;;;;;5044840;28;20365;-57
2023/07/19 02:05:42;;;;;;;6.78;1.88;;;17.90;99.90;;;;;;5036880;28;20094;-57
2023/07/19 02:08:09;;;;;;;2.55;1.65;;;18.00;99.90;;;;;;5046339;28;20057;-58
2023/07/19 02:10:36;;;;;;;4.82;1.95;;;17.90;99.90;;;;;;5041782;28;20048;-59
2023/07/19 02:13:03;;;;;;;9.55;2.30;;;17.80;99.90;;;;;;5030143;28;20056;-58
2023/07/19 02:15:29;;;;;;;4.65;1.80;;;17.80;99.90;;;;;;5034953;28;20431;-58
2023/07/19 02:17:56;;;;;;;6.55;1.90;;;17.80;99.90;;;;;;5047171;28;20045;-59
2023/07/19 02:20:23;;;;;;;4.55;1.58;;;17.80;99.90;;;;;;5042037;28;20067;-58
2023/07/19 02:22:50;;;;;;;9.27;1.95;;;17.70;99.90;;;;;;5031473;28;20139;-58
2023/07/19 02:25:17;;;;;;;6.63;2.10;;;17.60;99.90;;;;;;5036626;28;20041;-58
2023/07/19 02:27:44;;;;;;;6.50;1.48;;;17.70;99.90;;;;;;5043795;28;20044;-57
2023/07/19 02:30:11;;;;;;;6.43;2.33;;;17.70;99.90;;;;;;5040078;28;20094;-56
2023/07/19 02:32:38;;;;;;;12.18;2.20;;;17.60;99.90;;;;;;5036047;28;20049;-58
2023/07/19 02:35:05;;;;;;;9.38;1.85;;;17.60;99.90;;;;;;5034625;28;20049;-57
2023/07/19 02:37:32;;;;;;;8.50;2.05;;;17.60;99.90;;;;;;5039417;28;20048;-56
2023/07/19 02:39:59;;;;;;;7.13;2.05;;;17.60;99.90;;;;;;5044924;28;20045;-55
2023/07/19 02:42:26;;;;;;;7.80;1.77;;;17.50;99.90;;;;;;5047000;28;20056;-58
2023/07/19 02:44:53;;;;;;;9.00;3.33;;;17.50;99.90;;;;;;5043600;28;20100;-56
2023/07/19 02:47:19;;;;;;;6.57;1.85;;;17.60;99.90;;;;;;5039761;28;20180;-57
2023/07/19 02:49:46;;;;;;;4.53;1.67;;;17.60;99.90;;;;;;5032698;28;20136;-57
2023/07/19 02:52:13;;;;;;;7.25;1.70;;;17.60;99.90;;;;;;5036072;28;20416;-57
2023/07/19 02:54:40;;;;;;;6.82;1.33;;;17.70;99.90;;;;;;5045315;28;20052;-56
2023/07/19 02:57:07;;;;;;;6.10;1.92;;;17.70;99.90;;;;;;5041986;28;20506;-57
2023/07/19 02:59:34;;;;;;;6.32;2.25;;;17.60;99.90;;;;;;5045113;28;20052;-57
2023/07/19 03:02:02;;;;;;;6.32;1.88;;;17.50;99.90;;;;;;5035159;28;20417;-56
2023/07/19 03:04:29;;;;;;;7.15;1.73;;;17.50;99.90;;;;;;5046609;28;20502;-59
2023/07/19 03:06:56;;;;;;;4.75;1.88;;;17.50;99.90;;;;;;5040788;28;20315;-57
2023/07/19 03:09:23;;;;;;;6.10;1.98;;;17.50;99.90;;;;;;5031155;28;20045;-57
2023/07/19 03:11:51;;;;;;;5.13;1.83;;;17.60;99.90;;;;;;5036583;28;20081;-58
2023/07/19 03:14:18;;;;;;;2.63;1.40;;;17.60;99.90;;;;;;5043279;28;20051;-57
2023/07/19 03:16:45;;;;;;;5.60;1.90;;;17.60;99.90;;;;;;5039714;28;20103;-57
2023/07/19 03:19:12;;;;;;;6.45;2.05;;;17.50;99.90;;;;;;5035557;28;20099;-58
2023/07/19 03:21:40;;;;;;;6.28;1.65;;;17.50;99.90;;;;;;5034799;28;20134;-57
2023/07/19 03:24:08;;;;;;;5.60;1.75;;;17.40;99.90;;;;;;5027033;28;20065;-58
2023/07/19 03:26:35;;;;;;;6.25;1.30;;;17.30;99.90;;;;;;5034384;28;20128;-58
2023/07/19 03:29:02;;;;;;;5.18;1.52;;;17.40;99.90;;;;;;5046613;28;20095;-58
2023/07/19 03:31:29;;;;;;;6.72;1.83;;;17.40;99.90;;;;;;5040655;28;20774;-57
2023/07/19 03:33:56;;;;;;;5.38;1.77;;;17.50;99.90;;;;;;5039123;28;20049;-57
2023/07/19 03:36:23;;;;;;;8.68;1.80;;;17.50;99.90;;;;;;5032473;28;20438;-58
2023/07/19 03:38:50;;;;;;;6.60;1.65;;;17.50;99.90;;;;;;5042491;28;20041;-58
2023/07/19 03:41:17;;;;;;;10.15;3.08;;;17.50;99.90;;;;;;5030141;28;20079;-57
2023/07/19 03:43:44;;;;;;;3.17;1.33;;;17.50;99.90;;;;;;5035510;28;20120;-57
2023/07/19 03:46:11;;;;;;;4.00;1.15;;;17.40;99.90;;;;;;5047269;28;20045;-58
2023/07/19 03:48:38;;;;;;;4.88;1.42;;;17.40;99.90;;;;;;5043759;28;20452;-58
2023/07/19 03:51:05;;;;;;;4.38;1.50;;;17.40;99.90;;;;;;5047141;28;20048;-54
2023/07/19 03:53:32;;;;;;;5.53;1.52;;;17.40;99.90;;;;;;5034990;28;20049;-57
2023/07/19 03:55:59;;;;;;;5.35;1.52;;;17.40;99.90;;;;;;5044787;28;20423;-57
2023/07/19 03:58:26;;;;;;;14.20;2.95;;;17.40;99.90;;;;;;5036327;28;20041;-57
2023/07/19 04:00:54;;;;;;;4.53;1.60;;;17.40;99.90;;;;;;5043718;28;20079;-58
2023/07/19 04:03:21;;;;;;;6.28;1.35;;;17.40;99.90;;;;;;5038844;28;20491;-57
2023/07/19 04:05:47;;;;;;;7.15;1.85;;;17.40;99.90;;;;;;5034522;28;20056;-57
2023/07/19 04:08:14;;;;;;;10.05;2.20;;;17.50;99.90;;;;;;5043802;28;20049;-55
2023/07/19 04:10:42;;;;;;;5.55;1.42;;;17.50;99.90;;;;;;5046399;28;20376;-57
2023/07/19 04:13:10;;;;;;;10.98;2.40;;;17.50;99.90;;;;;;5040685;28;20052;-54
2023/07/19 04:15:37;;;;;;;6.55;1.92;;;17.40;99.90;;;;;;5036705;28;20442;-55
2023/07/19 04:18:04;;;;;;;6.40;1.25;;;17.50;99.90;;;;;;5042024;28;20059;-57
2023/07/19 04:20:31;;;;;;;9.10;1.90;;;17.50;99.90;;;;;;5036628;28;20052;-57
2023/07/19 04:22:58;;;;;;;6.07;1.95;;;17.50;99.90;;;;;;5042445;28;20542;-56
2023/07/19 04:25:24;;;;;;;11.57;1.80;;;17.50;99.90;;;;;;5043871;28;20057;-59
2023/07/19 04:27:51;;;;;;;8.23;2.47;;;17.50;99.90;;;;;;5043086;28;20511;-57
2023/07/19 04:30:18;;;;;;;7.22;2.25;;;17.50;99.90;;;;;;5035232;28;20050;-57
2023/07/19 04:32:45;;;;;;;9.30;2.05;;;17.50;99.90;;;;;;5047024;28;20063;-57
2023/07/19 04:35:12;;;;;;;9.38;1.83;;;17.50;99.90;;;;;;5046507;28;20562;-58
2023/07/19 04:37:40;;;;;;;10.20;2.55;;;17.50;99.90;;;;;;5032378;28;20053;-56
2023/07/19 04:40:08;;;;;;;4.88;1.58;;;17.50;99.90;;;;;;5043888;28;20053;-57
2023/07/19 04:42:35;;;;;;;4.85;1.17;;;17.50;99.90;;;;;;5050485;28;20053;-58
2023/07/19 04:45:03;;;;;;;5.68;1.27;;;17.50;99.90;;;;;;5044821;28;20037;-55
2023/07/19 04:47:30;;;;;;;7.32;1.90;;;17.40;99.90;;;;;;5035230;28;20053;-57
2023/07/19 04:49:57;;;;;;;6.13;1.77;;;17.50;99.90;;;;;;5038867;28;20103;-56
2023/07/19 04:52:24;;;;;;;5.07;1.80;;;17.50;99.90;;;;;;5044470;28;20057;-57
2023/07/19 04:54:50;;;;;;;9.70;2.00;;;17.60;99.90;;;;;;5042115;28;20424;-57
2023/07/19 04:57:17;;;;;;;10.38;2.58;;;17.60;99.90;;;;;;5048169;28;20045;-58
2023/07/19 04:59:44;;;;;;;9.32;2.90;;;17.60;99.90;;;;;;5047235;28;20040;-57
2023/07/19 05:02:12;;;;;;;3.53;1.30;;;17.60;99.90;;;;;;5046079;28;20110;-56
2023/07/19 05:04:39;;;;;;;5.55;1.52;;;17.60;99.90;;;;;;5044557;28;20049;-57
2023/07/19 05:07:06;;;;;;;4.43;1.67;;;17.50;99.90;;;;;;5039540;28;20049;-55
2023/07/19 05:09:34;;;;;;;5.28;1.83;;;17.50;99.90;;;;;;5044556;28;20060;-57
2023/07/19 05:12:01;;;;;;;5.57;2.22;;;17.50;99.90;;;;;;5042016;28;20049;-58
2023/07/19 05:14:28;;;;;;;10.20;1.88;;;17.50;99.90;;;;;;5032983;28;20048;-58
2023/07/19 05:16:54;;;;;;;9.88;2.95;;;17.50;99.90;;;;;;5042899;28;20148;-58
2023/07/19 05:19:21;;;;;;;10.07;1.80;;;17.60;99.90;;;;;;5031702;28;20049;-57
2023/07/19 05:21:48;;;;;;;7.25;1.52;;;17.70;99.90;;;;;;5046149;28;20365;-62
2023/07/19 05:24:15;;;;;;;5.53;2.70;;;17.60;99.90;;;;;;5048584;28;20064;-58
2023/07/19 05:26:42;;;;;;;6.63;2.03;;;17.70;99.90;;;;;;5042800;28;20122;-57
2023/07/19 05:29:09;;;;;;;7.32;2.05;;;17.70;99.90;;;;;;5049810;28;20064;-58
2023/07/19 05:31:36;;;;;;;8.00;1.88;;;17.70;99.90;;;;;;5040920;28;20383;-57
2023/07/19 05:34:03;;;;;;;8.63;2.00;;;17.60;99.90;;;;;;5045936;28;20132;-59
2023/07/19 05:36:30;;;;;;;5.40;2.38;;;17.50;99.90;;;;;;5041430;28;20064;-57
2023/07/19 05:38:56;;;;;;;7.50;2.00;;;17.40;99.90;;;;;;5036727;28;20096;-57
2023/07/19 05:41:23;;;;;;;6.60;1.83;;;17.50;99.90;;;;;;5038328;28;20072;-57
2023/07/19 05:43:50;;;;;;;6.53;2.38;;;17.60;99.90;;;;;;5050662;28;20049;-57
2023/07/19 05:46:36;;;;;;;6.88;2.35;;;17.70;99.90;;;;;;5041878;28;20047;-55
2023/07/19 05:49:03;;;;;;;10.13;2.33;;;17.70;99.90;;;;;;5037911;28;20049;-57
2023/07/19 05:51:30;;;;;;;5.95;1.60;;;17.70;99.90;;;;;;5038549;28;20534;-59
2023/07/19 05:53:57;;;;;;;3.92;1.80;;;17.60;99.90;;;;;;5039972;28;20047;-57
2023/07/19 05:56:24;;;;;;;6.80;1.73;;;17.70;99.90;;;;;;5046768;28;20068;-59
2023/07/19 05:58:51;;;;;;;9.40;2.30;;;17.70;99.90;;;;;;5038906;28;20049;-58
2023/07/19 06:01:19;;;;;;;12.50;2.40;;;17.60;99.90;;;;;;5045266;28;20174;-60
2023/07/19 06:03:48;;;;;;;12.90;2.38;;;17.60;99.90;;;;;;5048892;28;20135;-59
2023/07/19 06:06:15;;;;;;;8.10;2.13;;;17.60;99.90;;;;;;5046366;28;20190;-58
2023/07/19 06:08:42;;;;;;;14.35;2.60;;;17.70;99.90;;;;;;5043110;28;20404;-59
2023/07/19 06:11:09;;;;;;;6.38;2.35;;;17.80;99.90;;;;;;5030417;28;20528;-56
2023/07/19 06:13:35;;;;;;;8.75;2.60;;;17.80;99.90;;;;;;5036495;28;20050;-58
2023/07/19 06:16:11;;;;;;;6.93;2.40;;;17.80;99.90;;;;;;5048078;28;20087;-61
2023/07/19 06:18:38;;;;;;;8.40;2.47;;;17.60;99.90;;;;;;5041970;28;20565;-58
2023/07/19 06:21:05;;;;;;;6.55;2.20;;;17.40;99.90;;;;;;5031398;28;20161;-58
2023/07/19 06:23:32;;;;;;;9.13;2.42;;;17.40;99.90;;;;;;5036085;28;20061;-58
2023/07/19 06:26:02;;;;;;;8.65;2.88;;;17.40;99.90;;;;;;5046600;28;20041;-60
2023/07/19 06:28:32;;;;;;;6.43;2.43;;;17.30;99.90;;;;;;5040056;28;20107;-58
2023/07/19 06:31:01;;;;;;;6.82;2.90;;;17.00;99.90;;;;;;5046199;28;20124;-58
2023/07/19 06:33:29;;;;;;;8.73;2.95;;;17.00;99.90;;;;;;5040579;28;20052;-59
2023/07/19 06:35:56;;;;;;;7.60;2.63;;;17.00;99.90;;;;;;5035028;28;20053;-59
2023/07/19 06:38:25;;;;;;;11.73;3.13;;;16.90;99.90;;;;;;5041536;28;20041;-59
2023/07/19 06:40:52;;;;;;;7.63;2.88;;;17.00;99.90;;;;;;5048796;28;20484;-58
2023/07/19 06:43:18;;;;;;;9.23;2.63;;;17.00;99.90;;;;;;5040102;28;20431;-57
2023/07/19 06:45:46;;;;;;;7.70;2.50;;;17.00;99.90;;;;;;5048743;28;20049;-57
2023/07/19 06:48:12;;;;;;;7.78;2.60;;;17.00;99.90;;;;;;5039649;28;20102;-56
2023/07/19 06:50:39;;;;;;;8.07;3.45;;;17.00;99.90;;;;;;5039352;28;20096;-57
2023/07/19 06:53:06;;;;;;;8.98;3.78;;;17.10;99.90;;;;;;5032065;28;20047;-57
2023/07/19 06:55:33;;;;;;;9.65;3.25;;;17.20;99.90;;;;;;5035817;28;20136;-58
2023/07/19 06:58:00;;;;;;;5.93;3.20;;;17.20;99.90;;;;;;5044520;28;20047;-58
2023/07/19 07:00:27;;;;;;;12.18;2.67;;;17.20;99.90;;;;;;5040778;28;20037;-58
2023/07/19 07:02:54;;;;;;;19.10;2.97;;;17.30;99.90;;;;;;5029710;28;20046;-57
2023/07/19 07:05:21;;;;;;;7.43;2.47;;;17.30;99.90;;;;;;5035768;28;20041;-59
2023/07/19 07:07:48;;;;;;;8.50;2.25;;;17.40;99.90;;;;;;5046695;28;20044;-57
2023/07/19 07:10:15;;;;;;;9.02;3.20;;;17.40;99.90;;;;;;5046393;28;20037;-60
2023/07/19 07:12:45;;;;;;;5.45;2.65;;;17.50;99.90;;;;;;5044503;28;20046;-58
2023/07/19 07:15:12;;;;;;;7.97;2.92;;;17.50;99.90;;;;;;5041564;28;20045;-72
2023/07/19 07:17:40;;;;;;;8.95;3.00;;;17.40;99.90;;;;;;5013211;28;20041;-58
2023/07/19 07:20:07;;;;;;;8.27;2.63;;;17.40;99.90;;;;;;5034866;28;20038;-57
2023/07/19 07:22:34;;;;;;;8.20;2.50;;;17.30;99.90;;;;;;5043238;28;20044;-57
2023/07/19 07:25:01;;;;;;;7.78;2.90;;;17.30;99.90;;;;;;5039264;28;20045;-58
2023/07/19 07:27:28;;;;;;;10.80;2.83;;;17.20;99.90;;;;;;5048370;28;20056;-55
2023/07/19 07:29:55;;;;;;;6.57;3.75;;;17.00;99.90;;;;;;5037495;28;20316;-56
2023/07/19 07:32:22;;;;;;;9.68;3.03;;;16.90;99.90;;;;;;5037378;28;20392;-57
2023/07/19 07:34:49;;;;;;;12.30;3.30;;;16.90;99.90;;;;;;5034294;28;20424;-57
2023/07/19 07:37:17;;;;;;;7.38;2.30;;;16.90;99.90;;;;;;5034734;28;20045;-58
2023/07/19 07:39:44;;;;;;;4.22;2.42;;;17.10;99.90;;;;;;5040420;28;20090;-57
2023/07/19 07:42:11;;;;;;;17.25;2.55;;;17.20;99.90;;;;;;5037087;28;20038;-59
2023/07/19 07:44:38;;;;;;;8.18;2.53;;;17.30;99.90;;;;;;5029176;28;20068;-56
2023/07/19 07:47:05;;;;;;;6.10;2.65;;;17.20;99.90;;;;;;5032242;28;20549;-59
2023/07/19 07:49:32;;;;;;;5.53;2.60;;;17.30;99.90;;;;;;5042718;28;20396;-56
2023/07/19 07:51:59;;;;;;;7.95;3.13;;;17.30;99.90;;;;;;5039887;28;20214;-58
2023/07/19 07:54:26;;;;;;;5.70;2.55;;;17.40;99.90;;;;;;5029208;28;20152;-55
2023/07/19 07:56:53;;;;;;;8.38;4.10;;;17.50;99.90;;;;;;5044289;28;20049;-57
2023/07/19 07:59:20;;;;;;;6.25;2.30;;;17.50;99.90;;;;;;5029374;28;20069;-60
2023/07/19 08:01:46;;;;;;;10.45;3.65;;;17.60;99.90;;;;;;5022488;28;20045;-57
2023/07/19 08:04:13;;;;;;;7.35;3.08;;;17.60;99.90;;;;;;5027151;28;20136;-55
2023/07/19 08:06:40;;;;;;;6.85;2.72;;;17.60;99.90;;;;;;5038020;28;20111;-58
2023/07/19 08:09:07;;;;;;;4.95;2.50;;;17.70;99.90;;;;;;5046383;28;20184;-57
2023/07/19 08:11:34;;;;;;;6.80;2.22;;;17.80;99.90;;;;;;5042787;28;20052;-58
2023/07/19 08:14:01;;;;;;;3.47;1.83;;;17.90;99.90;;;;;;5038821;28;20050;-59
2023/07/19 08:16:28;;;;;;;6.07;1.90;;;17.80;99.90;;;;;;5039298;28;20041;-58
2023/07/19 08:18:55;;;;;;;4.40;1.65;;;17.70;99.90;;;;;;5024311;28;20052;-58
2023/07/19 08:21:23;;;;;;;5.75;2.08;;;17.70;99.90;;;;;;5043468;28;20060;-56
2023/07/19 08:24:02;;;;;;;3.15;1.25;;;17.70;99.90;;;;;;5041259;28;20104;-57
2023/07/19 08:26:29;;;;;;;7.10;1.83;;;17.80;99.90;;;;;;5049178;28;20121;-57
2023/07/19 08:28:56;;;;;;;2.95;1.20;;;17.90;99.90;;;;;;5046863;28;20080;-58
2023/07/19 08:31:23;;;;;;;4.95;1.67;;;18.00;99.90;;;;;;5046508;28;20417;-58
2023/07/19 08:33:52;;;;;;;1.98;1.40;;;18.20;99.90;;;;;;5049538;28;20057;-57
2023/07/19 08:36:19;;;;;;;3.20;1.73;;;18.30;99.90;;;;;;5046125;28;20045;-59
2023/07/19 08:38:47;;;;;;;6.10;1.60;;;18.30;99.90;;;;;;5039801;28;20087;-57
2023/07/19 08:41:15;;;;;;;5.75;2.22;;;18.40;99.90;;;;;;5049169;28;20059;-58
2023/07/19 08:43:42;;;;;;;3.65;2.00;;;18.60;99.90;;;;;;5043182;28;20060;-56
2023/07/19 08:46:12;;;;;;;4.28;1.80;;;18.70;99.90;;;;;;5048570;28;20161;-58
2023/07/19 08:48:38;;;;;;;4.03;2.03;;;18.70;99.90;;;;;;5042945;28;20045;-58
2023/07/19 08:51:05;;;;;;;9.00;1.83;;;18.70;99.90;;;;;;5015248;28;20217;-59
2023/07/19 08:53:32;;;;;;;6.57;2.03;;;18.80;99.90;;;;;;5036767;28;20077;-57
2023/07/19 08:55:59;;;;;;;14.25;2.67;;;18.80;99.90;;;;;;5048522;28;20041;-58
2023/07/19 08:58:26;;;;;;;4.25;1.75;;;18.90;99.90;;;;;;5038393;28;20052;-58
2023/07/19 09:00:52;;;;;;;9.48;2.38;;;19.00;99.90;;;;;;5044435;28;20049;-60
2023/07/19 09:03:20;;;;;;;8.35;1.95;;;19.00;99.90;;;;;;5042447;28;20111;-61
2023/07/19 09:05:47;;;;;;;6.45;1.60;;;18.90;99.90;;;;;;5038417;28;20046;-60
2023/07/19 09:08:14;;;;;;;7.13;2.17;;;18.80;99.90;;;;;;5038747;28;20527;-58
2023/07/19 09:10:44;;;;;;;5.03;2.20;;;18.60;99.90;;;;;;5041632;28;20049;-56
2023/07/19 09:13:17;;;;;;;8.68;2.50;;;18.60;99.90;;;;;;5044117;28;20045;-58
2023/07/19 09:15:47;;;;;;;6.80;2.58;;;18.70;99.90;;;;;;5039952;28;20122;-59
2023/07/19 09:18:14;;;;;;;10.15;2.65;;;18.70;99.90;;;;;;5041957;28;20045;-59
2023/07/19 09:20:42;;;;;;;7.20;1.85;;;18.80;99.90;;;;;;5040766;28;20056;-58
2023/07/19 09:23:09;;;;;;;9.60;2.28;;;18.60;99.90;;;;;;5035101;28;20526;-58
2023/07/19 09:25:55;;;;;;;7.95;2.70;;;18.60;99.90;;;;;;5050039;28;20053;-58
2023/07/19 09:28:22;;;;;;;3.25;1.88;;;18.80;99.90;;;;;;5044718;28;20045;-58
2023/07/19 09:31:03;;;;;;;5.85;2.42;;;18.90;99.90;;;;;;5041657;28;20041;-59
2023/07/19 09:33:33;;;;;;;7.20;2.10;;;18.90;99.90;;;;;;5035953;28;20053;-58
2023/07/19 09:36:00;;;;;;;6.43;2.50;;;19.00;99.90;;;;;;5039426;28;20081;-58
2023/07/19 09:38:27;;;;;;;4.53;2.17;;;19.00;99.90;;;;;;5044621;28;20072;-58
2023/07/19 09:40:54;;;;;;;5.88;2.20;;;19.10;99.90;;;;;;5042336;28;20087;-59
2023/07/19 09:43:21;;;;;;;13.55;3.78;;;19.20;99.90;;;;;;5032488;28;20041;-57
2023/07/19 09:45:48;;;;;;;5.53;2.15;;;19.40;99.90;;;;;;5046568;28;20045;-57
2023/07/19 09:48:16;;;;;;;4.07;1.95;;;19.50;99.90;;;;;;5047338;28;20045;-58
2023/07/19 09:50:43;;;;;;;6.78;3.10;;;19.60;99.90;;;;;;5042882;28;20115;-58
2023/07/19 09:53:11;;;;;;;7.65;2.30;;;19.60;99.90;;;;;;5029462;28;20559;-59
2023/07/19 09:55:38;;;;;;;4.55;2.08;;;19.70;99.90;;;;;;5037063;28;20084;-58
2023/07/19 09:58:11;;;;;;;2.38;1.58;;;19.70;99.90;;;;;;5030154;28;20052;-59
2023/07/19 10:00:38;;;;;;;5.20;1.88;;;19.60;99.90;;;;;;5043541;28;20044;-56
2023/07/19 10:03:08;;;;;;;8.80;2.15;;;19.70;99.90;;;;;;5032607;28;20389;-58
2023/07/19 10:05:38;;;;;;;3.80;2.00;;;19.80;99.90;;;;;;5044605;28;20045;-57
2023/07/19 10:08:05;;;;;;;2.58;1.27;;;19.90;99.90;;;;;;5034641;28;20207;-58
2023/07/19 10:10:40;;;;;;;3.60;1.65;;;20.00;99.90;;;;;;5036438;28;20072;-59
2023/07/19 10:13:07;;;;;;;2.88;1.45;;;20.10;99.90;;;;;;5041956;28;20487;-58
2023/07/19 10:15:35;;;;;;;4.20;1.73;;;20.30;99.90;;;;;;5035754;28;20045;-57
2023/07/19 10:18:02;;;;;;;7.45;1.80;;;20.60;99.90;;;;;;5041183;28;20395;-59
2023/07/19 10:20:36;;;;;;;4.10;1.45;;;20.50;99.90;;;;;;5041006;28;20109;-58
2023/07/19 10:23:05;;;;;;;4.82;1.40;;;20.70;99.90;;;;;;5037601;28;20396;-59
2023/07/19 10:25:32;;;;;;;5.20;1.65;;;20.80;99.90;;;;;;5034872;28;20496;-58
2023/07/19 10:28:04;;;;;;;3.58;1.58;;;21.10;99.90;;;;;;5039245;28;20045;-57
2023/07/19 10:30:50;;;;;;;4.55;1.67;;;21.40;99.90;;;;;;5034912;28;20053;-59
2023/07/19 10:33:28;;;;;;;2.72;1.70;;;21.70;99.90;;;;;;5039721;28;20049;-58
2023/07/19 10:36:05;;;;;;;4.93;1.58;;;21.90;99.90;;;;;;5032830;28;20053;-58
2023/07/19 10:38:32;;;;;;;4.53;1.90;;;21.80;99.90;;;;;;5047938;28;20092;-59
2023/07/19 10:41:03;;;;;;;3.20;1.48;;;21.80;99.90;;;;;;5043417;28;20737;-60
2023/07/19 10:43:31;;;;;;;6.40;1.45;;;21.60;99.90;;;;;;5038017;28;20474;-60
2023/07/19 10:46:17;;;;;;;2.42;1.20;;;21.80;99.90;;;;;;5037717;28;20045;-58
2023/07/19 10:48:45;;;;;;;11.85;2.25;;;21.70;99.90;;;;;;5038389;28;20045;-59
2023/07/19 10:51:12;;;;;;;4.43;1.67;;;21.80;99.90;;;;;;5041773;28;20508;-60
2023/07/19 10:53:45;;;;;;;3.42;1.40;;;21.90;99.90;;;;;;5037661;28;20055;-60
2023/07/19 10:56:13;;;;;;;5.65;1.77;;;22.10;99.90;;;;;;5043964;28;20075;-57
2023/07/19 10:58:41;;;;;;;2.30;1.33;;;22.00;99.90;;;;;;5045676;28;20049;-57
2023/07/19 11:01:08;;;;;;;2.05;1.23;;;21.80;99.90;;;;;;5044717;28;20171;-60
2023/07/19 11:03:35;;;;;;;3.50;1.52;;;21.80;99.90;;;;;;5037420;28;20080;-59
2023/07/19 11:06:03;;;;;;;2.95;1.50;;;21.90;99.90;;;;;;5046889;28;20045;-59
2023/07/19 11:08:32;;;;;;;3.20;1.50;;;21.80;99.90;;;;;;5039914;28;20044;-58
2023/07/19 11:10:58;;;;;;;5.32;2.15;;;21.90;99.90;;;;;;5028913;28;20091;-58
2023/07/19 11:13:26;;;;;;;2.90;1.50;;;21.90;99.90;;;;;;5035189;28;20053;-59
2023/07/19 11:15:54;;;;;;;2.30;1.27;;;21.90;99.90;;;;;;5047213;28;20118;-56
2023/07/19 11:18:40;;;;;;;5.53;1.75;;;21.90;99.90;;;;;;5035330;28;20593;-61
2023/07/19 11:21:07;;;;;;;1.60;1.00;;;21.90;99.90;;;;;;5029386;28;20495;-60
2023/07/19 11:23:41;;;;;;;1.77;1.05;;;21.90;99.90;;;;;;5041137;28;20053;-60
2023/07/19 11:26:10;;;;;;;11.65;1.75;;;21.60;99.90;;;;;;5030605;28;20084;-58
2023/07/19 11:28:47;;;;;;;3.97;1.52;;;21.60;99.90;;;;;;5034540;28;20154;-58
2023/07/19 11:31:33;;;;;;;4.30;1.45;;;21.70;99.90;;;;;;5046291;28;20519;-59
2023/07/19 11:34:12;;;;;;;2.60;1.75;;;21.90;99.90;;;;;;5042135;28;20049;-58
2023/07/19 11:36:40;;;;;;;3.00;1.27;;;22.10;99.90;;;;;;5029856;28;20046;-59
2023/07/19 11:39:16;;;;;;;1.65;1.10;;;22.10;99.90;;;;;;5041141;28;20538;-58
2023/07/19 11:41:44;;;;;;;3.13;1.52;;;22.00;99.90;;;;;;5039603;28;20722;-59
2023/07/19 11:44:21;;;;;;;1.70;1.10;;;22.10;99.90;;;;;;5047194;28;20484;-57
2023/07/19 11:46:49;;;;;;;2.88;1.42;;;22.10;99.90;;;;;;5051772;28;20049;-54
2023/07/19 11:49:16;;;;;;;2.30;1.17;;;22.30;99.90;;;;;;5039586;28;20048;-58
2023/07/19 11:51:45;;;;;;;3.42;1.77;;;22.20;99.90;;;;;;5049352;28;20056;-58
2023/07/19 11:54:13;;;;;;;3.42;1.73;;;22.20;99.90;;;;;;5042343;28;20495;-59
2023/07/19 11:56:40;;;;;;;4.03;1.45;;;22.20;99.90;;;;;;5037636;28;20128;-61
2023/07/19 11:59:07;;;;;;;5.45;1.40;;;22.30;99.90;;;;;;5043649;28;20077;-61
2023/07/19 12:01:34;;;;;;;5.20;1.50;;;22.40;99.90;;;;;;5039471;28;20045;-59
2023/07/19 12:04:01;;;;;;;7.40;1.90;;;22.60;99.90;;;;;;5038601;28;20136;-59
2023/07/19 12:06:29;;;;;;;3.88;1.25;;;22.80;99.90;;;;;;5042310;28;20072;-59
2023/07/19 12:08:56;;;;;;;3.15;1.85;;;22.80;99.90;;;;;;5042900;28;20108;-59
2023/07/19 12:11:23;;;;;;;2.47;1.20;;;22.60;99.90;;;;;;5042874;28;20049;-60
2023/07/19 12:13:50;;;;;;;2.47;1.00;;;22.60;99.90;;;;;;5036492;28;20515;-59
2023/07/19 12:16:17;;;;;;;6.53;1.25;;;22.60;99.90;;;;;;5045841;28;20060;-59
2023/07/19 12:18:45;;;;;;;5.32;1.30;;;22.80;99.90;;;;;;5035745;28;20045;-59
2023/07/19 12:21:12;;;;;;;4.43;1.38;;;22.70;99.90;;;;;;5038341;28;20076;-59
2023/07/19 12:23:42;;;;;;;6.78;1.45;;;22.60;99.90;;;;;;5046925;28;20053;-58
2023/07/19 12:26:23;;;;;;;3.05;1.52;;;22.40;99.90;;;;;;5046343;28;20184;-59
2023/07/19 12:28:53;;;;;;;4.03;1.35;;;22.40;99.90;;;;;;5033257;28;20054;-59
2023/07/19 12:31:20;;;;;;;3.75;1.50;;;22.60;99.90;;;;;;5043967;28;20045;-60
2023/07/19 12:33:47;;;;;;;6.78;1.70;;;22.50;99.90;;;;;;5048351;28;20520;-60
2023/07/19 12:36:14;;;;;;;9.07;1.50;;;22.60;99.90;;;;;;5044535;28;20049;-60
2023/07/19 12:38:40;;;;;;;5.05;1.40;;;22.90;99.90;;;;;;5032269;28;20052;-62
2023/07/19 12:41:07;;;;;;;2.40;1.27;;;22.80;99.90;;;;;;4694537;28;10000716;-61
2023/07/19 12:43:34;;;;;;;1.48;1.13;;;23.10;99.90;;;;;;5048014;28;20049;-60
2023/07/19 12:46:02;;;;;;;1.63;1.00;;;23.00;99.90;;;;;;5036294;28;20057;-60
2023/07/19 12:48:29;;;;;;;5.13;1.38;;;22.90;99.90;;;;;;5043838;28;20415;-60